Irondale, Missouri
Current Conditions -  °F | °C
As of 10:55 PM on Monday 22 Dec 2014 (Local Time) from KFAM Reporting Station
Overcast Overcast  
Wind Chill: 50°   Ceiling: 2900
Heat Index: 50°   Visibility: 10mi
Dew Point: 48°   Wind: 8mph
Humidity: 94%   Direction: 170°S
Pressure: 29.59"   Gusts: NA
Location:  37.83°N, 90.68°W
Report Text: KFAM 230455Z AUTO 17007KT 10SM SCT022 BKN029 OVC049 10/09 A2959 RMK AO1
Loading
Personal Weather Stations






























Interactive Weather Map New forecast layout! Learn more

10-Day Weather Forecast

Advertisements
Track Severe Weather on mobile